sensor_id;sensor_type;location;lat;lon;timestamp;pressure;altitude;pressure_sealevel;temperature;humidity
52591;BME280;38483;42.620;25.394;2022-12-08T00:01:41;96979.47;;;4.13;89.96
52591;BME280;38483;42.620;25.394;2022-12-08T00:04:08;96987.09;;;4.16;90.74
52591;BME280;38483;42.620;25.394;2022-12-08T00:06:38;96961.72;;;4.04;90.74
52591;BME280;38483;42.620;25.394;2022-12-08T00:09:29;96976.72;;;4.22;91.53
52591;BME280;38483;42.620;25.394;2022-12-08T00:12:11;96973.19;;;4.26;92.04
52591;BME280;38483;42.620;25.394;2022-12-08T00:14:41;96975.66;;;4.31;91.68
52591;BME280;38483;42.620;25.394;2022-12-08T00:17:10;96978.03;;;4.38;92.42
52591;BME280;38483;42.620;25.394;2022-12-08T00:19:37;96982.75;;;4.56;91.58
52591;BME280;38483;42.620;25.394;2022-12-08T00:22:06;96971.38;;;4.66;91.67
52591;BME280;38483;42.620;25.394;2022-12-08T00:24:35;96978.88;;;4.75;90.96
52591;BME280;38483;42.620;25.394;2022-12-08T00:27:10;96976.53;;;4.66;89.39
52591;BME280;38483;42.620;25.394;2022-12-08T00:29:38;96978.38;;;4.60;89.72
52591;BME280;38483;42.620;25.394;2022-12-08T00:32:05;96986.31;;;4.49;89.24
52591;BME280;38483;42.620;25.394;2022-12-08T00:34:33;96988.16;;;4.44;88.70
52591;BME280;38483;42.620;25.394;2022-12-08T00:36:59;96972.22;;;4.32;88.49
52591;BME280;38483;42.620;25.394;2022-12-08T00:39:26;96992.09;;;4.21;88.08
52591;BME280;38483;42.620;25.394;2022-12-08T00:41:53;96962.69;;;3.98;88.89
52591;BME280;38483;42.620;25.394;2022-12-08T00:44:43;96978.66;;;4.11;88.90
52591;BME280;38483;42.620;25.394;2022-12-08T00:47:12;96980.91;;;4.25;87.45
52591;BME280;38483;42.620;25.394;2022-12-08T00:49:39;96976.16;;;4.46;87.38
52591;BME280;38483;42.620;25.394;2022-12-08T00:52:06;96968.16;;;4.58;86.51
52591;BME280;38483;42.620;25.394;2022-12-08T00:54:33;96967.81;;;4.72;86.52
52591;BME280;38483;42.620;25.394;2022-12-08T00:57:00;96975.50;;;4.73;84.18
52591;BME280;38483;42.620;25.394;2022-12-08T00:59:27;96966.19;;;4.69;84.16
52591;BME280;38483;42.620;25.394;2022-12-08T01:01:54;96968.63;;;4.75;82.38
52591;BME280;38483;42.620;25.394;2022-12-08T01:04:21;96967.81;;;4.72;82.22
52591;BME280;38483;42.620;25.394;2022-12-08T01:06:48;96965.34;;;4.69;81.88
52591;BME280;38483;42.620;25.394;2022-12-08T01:09:16;96972.28;;;4.65;82.68
52591;BME280;38483;42.620;25.394;2022-12-08T01:11:44;96957.72;;;4.66;82.09
52591;BME280;38483;42.620;25.394;2022-12-08T01:14:11;96966.19;;;4.69;83.00
52591;BME280;38483;42.620;25.394;2022-12-08T01:16:38;96944.09;;;4.64;81.89
52591;BME280;38483;42.620;25.394;2022-12-08T01:19:09;96969.53;;;4.73;81.10
52591;BME280;38483;42.620;25.394;2022-12-08T01:21:37;96971.97;;;4.42;80.97
52591;BME280;38483;42.620;25.394;2022-12-08T01:24:04;96960.56;;;4.17;83.14
52591;BME280;38483;42.620;25.394;2022-12-08T01:26:31;96960.31;;;4.29;83.66
52591;BME280;38483;42.620;25.394;2022-12-08T01:28:58;96959.16;;;4.42;82.84
52591;BME280;38483;42.620;25.394;2022-12-08T01:31:25;96949.94;;;4.34;82.38
52591;BME280;38483;42.620;25.394;2022-12-08T01:33:53;96973.25;;;4.60;82.40
52591;BME280;38483;42.620;25.394;2022-12-08T01:36:22;96958.81;;;4.56;82.31
52591;BME280;38483;42.620;25.394;2022-12-08T01:38:50;96974.53;;;4.42;82.56
52591;BME280;38483;42.620;25.394;2022-12-08T01:41:20;96956.88;;;4.30;82.35
52591;BME280;38483;42.620;25.394;2022-12-08T01:46:24;96977.09;;;4.04;83.66
52591;BME280;38483;42.620;25.394;2022-12-08T01:49:06;96966.97;;;3.98;83.52
52591;BME280;38483;42.620;25.394;2022-12-08T01:51:37;96964.75;;;3.83;84.62
52591;BME280;38483;42.620;25.394;2022-12-08T01:54:07;96973.13;;;3.91;86.26
52591;BME280;38483;42.620;25.394;2022-12-08T01:56:40;96967.03;;;3.95;87.31
52591;BME280;38483;42.620;25.394;2022-12-08T01:59:10;96974.28;;;4.14;86.54
52591;BME280;38483;42.620;25.394;2022-12-08T02:01:38;96964.56;;;4.29;86.18
52591;BME280;38483;42.620;25.394;2022-12-08T02:04:05;96955.03;;;4.35;85.34
52591;BME280;38483;42.620;25.394;2022-12-08T02:06:35;96961.56;;;4.48;85.55
52591;BME280;38483;42.620;25.394;2022-12-08T02:09:05;96964.09;;;4.50;85.20
52591;BME280;38483;42.620;25.394;2022-12-08T02:11:33;96972.69;;;4.47;85.21
52591;BME280;38483;42.620;25.394;2022-12-08T02:14:05;96967.94;;;4.32;85.18
52591;BME280;38483;42.620;25.394;2022-12-08T02:22:18;96964.94;;;4.50;85.40
52591;BME280;38483;42.620;25.394;2022-12-08T02:27:49;96965.81;;;4.49;84.50
52591;BME280;38483;42.620;25.394;2022-12-08T02:36:04;96963.34;;;4.08;85.36
52591;BME280;38483;42.620;25.394;2022-12-08T02:41:19;96948.75;;;3.72;87.40
52591;BME280;38483;42.620;25.394;2022-12-08T02:47:15;96957.25;;;4.13;87.35
52591;BME280;38483;42.620;25.394;2022-12-08T02:49:43;96955.34;;;4.22;86.06
52591;BME280;38483;42.620;25.394;2022-12-08T02:54:43;96956.34;;;4.16;85.89
52591;BME280;38483;42.620;25.394;2022-12-08T02:57:33;96961.38;;;4.19;85.47
52591;BME280;38483;42.620;25.394;2022-12-08T03:00:06;96958.19;;;4.09;85.46
52591;BME280;38483;42.620;25.394;2022-12-08T03:14:33;96973.78;;;3.99;86.23
52591;BME280;38483;42.620;25.394;2022-12-08T03:17:01;96954.41;;;3.86;86.40
52591;BME280;38483;42.620;25.394;2022-12-08T03:19:33;96969.78;;;3.87;86.17
52591;BME280;38483;42.620;25.394;2022-12-08T03:22:02;96962.22;;;3.80;86.79
52591;BME280;38483;42.620;25.394;2022-12-08T03:24:35;96972.47;;;3.80;87.64
52591;BME280;38483;42.620;25.394;2022-12-08T03:27:07;96962.44;;;3.69;88.04
52591;BME280;38483;42.620;25.394;2022-12-08T03:29:35;96965.78;;;3.74;88.54
52591;BME280;38483;42.620;25.394;2022-12-08T03:34:45;96985.16;;;3.86;89.14
52591;BME280;38483;42.620;25.394;2022-12-08T03:37:13;96941.97;;;3.69;89.06
52591;BME280;38483;42.620;25.394;2022-12-08T03:39:41;96982.25;;;4.02;88.75
52591;BME280;38483;42.620;25.394;2022-12-08T03:42:08;96954.41;;;3.87;88.61
52591;BME280;38483;42.620;25.394;2022-12-08T03:44:35;96965.94;;;4.06;88.53
52591;BME280;38483;42.620;25.394;2022-12-08T03:47:01;96976.03;;;4.14;88.25
52591;BME280;38483;42.620;25.394;2022-12-08T03:49:28;96961.66;;;4.07;88.36
52591;BME280;38483;42.620;25.394;2022-12-08T03:51:55;96967.28;;;4.23;88.50
52591;BME280;38483;42.620;25.394;2022-12-08T03:54:32;96979.00;;;4.34;87.43
52591;BME280;38483;42.620;25.394;2022-12-08T03:56:59;96982.75;;;4.56;86.91
52591;BME280;38483;42.620;25.394;2022-12-08T03:59:25;96977.00;;;4.45;86.91
52591;BME280;38483;42.620;25.394;2022-12-08T04:01:52;96966.19;;;4.34;86.39
52591;BME280;38483;42.620;25.394;2022-12-08T04:04:19;96969.47;;;4.39;87.13
52591;BME280;38483;42.620;25.394;2022-12-08T04:06:46;96968.88;;;4.27;87.57
52591;BME280;38483;42.620;25.394;2022-12-08T04:09:13;96979.66;;;4.42;87.22
52591;BME280;38483;42.620;25.394;2022-12-08T04:11:40;96973.59;;;4.46;86.79
52591;BME280;38483;42.620;25.394;2022-12-08T04:14:07;96979.16;;;4.27;86.60
52591;BME280;38483;42.620;25.394;2022-12-08T04:16:34;96977.84;;;4.09;88.36
52591;BME280;38483;42.620;25.394;2022-12-08T04:19:01;96990.66;;;4.09;88.59
52591;BME280;38483;42.620;25.394;2022-12-08T04:21:28;96984.75;;;4.04;88.59
52591;BME280;38483;42.620;25.394;2022-12-08T04:23:55;96986.78;;;3.91;89.10
52591;BME280;38483;42.620;25.394;2022-12-08T04:26:27;96975.84;;;3.82;89.28
52591;BME280;38483;42.620;25.394;2022-12-08T04:28:54;96968.25;;;3.79;90.14
52591;BME280;38483;42.620;25.394;2022-12-08T04:31:20;96971.63;;;3.81;89.92
52591;BME280;38483;42.620;25.394;2022-12-08T04:33:47;96999.50;;;3.94;90.05
52591;BME280;38483;42.620;25.394;2022-12-08T04:36:14;97009.41;;;4.11;90.12
52591;BME280;38483;42.620;25.394;2022-12-08T04:38:41;97008.44;;;4.15;89.97
52591;BME280;38483;42.620;25.394;2022-12-08T04:41:08;97003.41;;;4.10;90.09
52591;BME280;38483;42.620;25.394;2022-12-08T04:43:35;96995.16;;;3.98;89.99
52591;BME280;38483;42.620;25.394;2022-12-08T04:46:07;97002.03;;;3.96;90.52
52591;BME280;38483;42.620;25.394;2022-12-08T04:48:38;97010.47;;;4.01;89.80
52591;BME280;38483;42.620;25.394;2022-12-08T04:51:06;96996.91;;;3.96;90.52
52591;BME280;38483;42.620;25.394;2022-12-08T04:53:33;97011.09;;;4.12;91.05
52591;BME280;38483;42.620;25.394;2022-12-08T04:56:00;96995.09;;;4.01;90.71
52591;BME280;38483;42.620;25.394;2022-12-08T04:58:27;96997.56;;;4.05;91.18
52591;BME280;38483;42.620;25.394;2022-12-08T05:00:54;97006.84;;;4.11;91.66
52591;BME280;38483;42.620;25.394;2022-12-08T05:03:21;97005.03;;;4.14;90.89
52591;BME280;38483;42.620;25.394;2022-12-08T05:05:54;97009.41;;;4.11;91.73
52591;BME280;38483;42.620;25.394;2022-12-08T05:08:21;97012.63;;;4.19;90.85
52591;BME280;38483;42.620;25.394;2022-12-08T05:10:48;97010.69;;;4.30;91.04
52591;BME280;38483;42.620;25.394;2022-12-08T05:13:15;96998.59;;;4.35;90.61
52591;BME280;38483;42.620;25.394;2022-12-08T05:15:42;97002.84;;;4.38;90.62
52591;BME280;38483;42.620;25.394;2022-12-08T05:18:09;97002.97;;;4.32;91.25
52591;BME280;38483;42.620;25.394;2022-12-08T05:20:36;96995.19;;;4.36;90.90
52591;BME280;38483;42.620;25.394;2022-12-08T05:23:03;96997.50;;;4.47;91.25
52591;BME280;38483;42.620;25.394;2022-12-08T05:25:30;97001.84;;;4.43;90.97
52591;BME280;38483;42.620;25.394;2022-12-08T05:27:57;96998.19;;;4.55;90.66
52591;BME280;38483;42.620;25.394;2022-12-08T05:30:45;96987.78;;;4.61;90.79
52591;BME280;38483;42.620;25.394;2022-12-08T05:33:11;97013.03;;;4.77;90.01
52591;BME280;38483;42.620;25.394;2022-12-08T05:35:38;96990.25;;;4.65;90.08
52591;BME280;38483;42.620;25.394;2022-12-08T05:38:06;97015.41;;;4.85;90.04
52591;BME280;38483;42.620;25.394;2022-12-08T05:40:33;97010.28;;;4.85;89.62
52591;BME280;38483;42.620;25.394;2022-12-08T05:43:00;97013.69;;;4.85;90.13
52591;BME280;38483;42.620;25.394;2022-12-08T05:45:26;97020.22;;;4.99;89.39
52591;BME280;38483;42.620;25.394;2022-12-08T05:47:53;97011.53;;;5.04;88.71
52591;BME280;38483;42.620;25.394;2022-12-08T05:50:20;97009.97;;;4.99;88.45
52591;BME280;38483;42.620;25.394;2022-12-08T05:52:47;97026.00;;;5.07;88.62
52591;BME280;38483;42.620;25.394;2022-12-08T05:55:14;97029.38;;;5.09;88.87
52591;BME280;38483;42.620;25.394;2022-12-08T05:57:41;97039.28;;;5.22;88.83
52591;BME280;38483;42.620;25.394;2022-12-08T06:00:09;97029.13;;;5.18;88.90
52591;BME280;38483;42.620;25.394;2022-12-08T06:02:39;96986.16;;;4.92;88.13
52591;BME280;38483;42.620;25.394;2022-12-08T06:05:06;97031.81;;;5.13;88.58
52591;BME280;38483;42.620;25.394;2022-12-08T06:07:34;97028.34;;;5.16;89.60
52591;BME280;38483;42.620;25.394;2022-12-08T06:10:01;97011.88;;;4.89;88.78
52591;BME280;38483;42.620;25.394;2022-12-08T06:12:28;97021.44;;;4.82;89.69
52591;BME280;38483;42.620;25.394;2022-12-08T06:14:55;97052.50;;;5.07;89.47
52591;BME280;38483;42.620;25.394;2022-12-08T06:17:22;97041.41;;;5.07;89.39
52591;BME280;38483;42.620;25.394;2022-12-08T06:19:49;97055.19;;;5.03;88.98
52591;BME280;38483;42.620;25.394;2022-12-08T06:22:16;97035.63;;;4.99;89.56
52591;BME280;38483;42.620;25.394;2022-12-08T06:24:43;97033.41;;;4.83;88.70
52591;BME280;38483;42.620;25.394;2022-12-08T06:27:10;97020.78;;;4.76;89.50
52591;BME280;38483;42.620;25.394;2022-12-08T06:29:37;97037.81;;;4.77;90.06
52591;BME280;38483;42.620;25.394;2022-12-08T06:32:04;97043.84;;;4.76;91.35
52591;BME280;38483;42.620;25.394;2022-12-08T06:34:31;97023.78;;;4.56;91.43
52591;BME280;38483;42.620;25.394;2022-12-08T06:36:58;97045.72;;;4.68;91.32
52591;BME280;38483;42.620;25.394;2022-12-08T06:39:24;97046.38;;;4.77;90.97
52591;BME280;38483;42.620;25.394;2022-12-08T06:41:51;97039.63;;;4.73;90.47
52591;BME280;38483;42.620;25.394;2022-12-08T06:44:37;97042.09;;;4.78;91.02
52591;BME280;38483;42.620;25.394;2022-12-08T06:47:04;97042.06;;;4.79;91.43
52591;BME280;38483;42.620;25.394;2022-12-08T06:49:31;97044.38;;;4.90;91.89
52591;BME280;38483;42.620;25.394;2022-12-08T06:51:58;97043.97;;;5.07;90.60
52591;BME280;38483;42.620;25.394;2022-12-08T06:54:25;97040.41;;;5.12;91.30
52591;BME280;38483;42.620;25.394;2022-12-08T06:56:52;97032.59;;;5.17;91.28
52591;BME280;38483;42.620;25.394;2022-12-08T06:59:19;97008.75;;;5.12;90.93
52591;BME280;38483;42.620;25.394;2022-12-08T07:01:46;97044.00;;;5.39;90.64
52591;BME280;38483;42.620;25.394;2022-12-08T07:04:13;97052.94;;;5.56;89.11
52591;BME280;38483;42.620;25.394;2022-12-08T07:06:40;97063.91;;;5.63;89.60
52591;BME280;38483;42.620;25.394;2022-12-08T07:09:06;97056.78;;;5.74;89.32
52591;BME280;38483;42.620;25.394;2022-12-08T07:11:33;97061.69;;;5.82;87.67
52591;BME280;38483;42.620;25.394;2022-12-08T07:14:00;97053.31;;;5.75;87.29
52591;BME280;38483;42.620;25.394;2022-12-08T07:16:27;97043.03;;;5.75;87.36
52591;BME280;38483;42.620;25.394;2022-12-08T07:18:54;97068.91;;;6.01;87.89
52591;BME280;38483;42.620;25.394;2022-12-08T07:21:21;97071.84;;;5.89;87.87
52591;BME280;38483;42.620;25.394;2022-12-08T07:23:49;97075.78;;;6.01;86.92
52591;BME280;38483;42.620;25.394;2022-12-08T07:26:23;97083.94;;;6.15;88.17
52591;BME280;38483;42.620;25.394;2022-12-08T07:28:51;97083.28;;;6.08;86.75
52591;BME280;38483;42.620;25.394;2022-12-08T07:31:20;97091.19;;;6.31;86.83
52591;BME280;38483;42.620;25.394;2022-12-08T07:33:48;97094.84;;;6.24;85.81
52591;BME280;38483;42.620;25.394;2022-12-08T07:36:16;97108.41;;;6.29;86.66
52591;BME280;38483;42.620;25.394;2022-12-08T07:38:43;97055.63;;;5.87;86.55
52591;BME280;38483;42.620;25.394;2022-12-08T07:41:12;97088.50;;;6.05;86.96
52591;BME280;38483;42.620;25.394;2022-12-08T07:43:40;97118.00;;;6.24;87.44
52591;BME280;38483;42.620;25.394;2022-12-08T07:46:10;97122.41;;;6.19;87.64
52591;BME280;38483;42.620;25.394;2022-12-08T07:48:38;97123.38;;;6.15;88.65
52591;BME280;38483;42.620;25.394;2022-12-08T07:51:05;97109.88;;;6.07;88.21
52591;BME280;38483;42.620;25.394;2022-12-08T07:53:32;97118.28;;;6.12;89.13
52591;BME280;38483;42.620;25.394;2022-12-08T07:56:00;97105.72;;;6.03;89.64
52591;BME280;38483;42.620;25.394;2022-12-08T07:58:26;97120.97;;;6.09;90.12
52591;BME280;38483;42.620;25.394;2022-12-08T08:00:53;97085.25;;;5.99;90.06
52591;BME280;38483;42.620;25.394;2022-12-08T08:03:20;97127.94;;;6.36;89.63
52591;BME280;38483;42.620;25.394;2022-12-08T08:05:48;97131.19;;;6.41;89.12
52591;BME280;38483;42.620;25.394;2022-12-08T08:08:16;97120.97;;;6.40;90.52
52591;BME280;38483;42.620;25.394;2022-12-08T08:10:44;97123.59;;;6.38;90.79
52591;BME280;38483;42.620;25.394;2022-12-08T08:13:12;97123.75;;;6.62;91.00
52591;BME280;38483;42.620;25.394;2022-12-08T08:15:39;97119.88;;;6.76;90.50
52591;BME280;38483;42.620;25.394;2022-12-08T08:18:06;97122.34;;;6.81;89.79
52591;BME280;38483;42.620;25.394;2022-12-08T08:20:33;97089.78;;;6.80;89.80
52591;BME280;38483;42.620;25.394;2022-12-08T08:23:00;97134.44;;;7.06;89.24
52591;BME280;38483;42.620;25.394;2022-12-08T08:25:27;97127.78;;;6.99;89.10
52591;BME280;38483;42.620;25.394;2022-12-08T08:27:54;97116.25;;;6.83;90.43
52591;BME280;38483;42.620;25.394;2022-12-08T08:30:21;97113.81;;;6.79;90.32
52591;BME280;38483;42.620;25.394;2022-12-08T08:32:49;97088.72;;;6.57;91.14
52591;BME280;38483;42.620;25.394;2022-12-08T08:35:16;97123.84;;;6.88;91.04
52591;BME280;38483;42.620;25.394;2022-12-08T08:37:43;97127.16;;;6.91;91.47
52591;BME280;38483;42.620;25.394;2022-12-08T08:40:16;97113.88;;;7.05;90.57
52591;BME280;38483;42.620;25.394;2022-12-08T08:42:43;97096.34;;;6.90;90.05
52591;BME280;38483;42.620;25.394;2022-12-08T08:45:10;97094.16;;;6.76;91.60
52591;BME280;38483;42.620;25.394;2022-12-08T08:47:37;97110.69;;;6.97;91.56
52591;BME280;38483;42.620;25.394;2022-12-08T08:50:04;97101.09;;;7.02;91.96
52591;BME280;38483;42.620;25.394;2022-12-08T08:52:32;97100.91;;;7.08;91.75
52591;BME280;38483;42.620;25.394;2022-12-08T08:54:59;97098.84;;;7.19;91.59
52591;BME280;38483;42.620;25.394;2022-12-08T08:57:26;97093.91;;;7.13;90.85
52591;BME280;38483;42.620;25.394;2022-12-08T08:59:53;97078.47;;;7.11;90.89
52591;BME280;38483;42.620;25.394;2022-12-08T09:02:22;97110.63;;;7.26;91.11
52591;BME280;38483;42.620;25.394;2022-12-08T09:04:51;97097.69;;;7.27;92.15
52591;BME280;38483;42.620;25.394;2022-12-08T09:07:18;97095.47;;;7.17;92.00
52591;BME280;38483;42.620;25.394;2022-12-08T09:09:45;97101.31;;;7.22;92.19
52591;BME280;38483;42.620;25.394;2022-12-08T09:12:12;97088.44;;;7.22;92.41
52591;BME280;38483;42.620;25.394;2022-12-08T09:14:39;97094.25;;;7.28;93.50
52591;BME280;38483;42.620;25.394;2022-12-08T09:17:06;97091.81;;;7.24;93.04
52591;BME280;38483;42.620;25.394;2022-12-08T09:19:34;97090.94;;;7.25;93.39
52591;BME280;38483;42.620;25.394;2022-12-08T09:22:00;97076.28;;;7.27;93.11
52591;BME280;38483;42.620;25.394;2022-12-08T09:24:27;97073.56;;;7.30;93.56
52591;BME280;38483;42.620;25.394;2022-12-08T09:26:54;97090.22;;;7.46;93.19
52591;BME280;38483;42.620;25.394;2022-12-08T09:29:21;97074.59;;;7.51;93.02
52591;BME280;38483;42.620;25.394;2022-12-08T09:31:48;97080.78;;;7.71;92.81
52591;BME280;38483;42.620;25.394;2022-12-08T09:34:16;97077.06;;;7.80;92.30
52591;BME280;38483;42.620;25.394;2022-12-08T09:36:42;97070.31;;;8.00;91.37
52591;BME280;38483;42.620;25.394;2022-12-08T09:39:09;97072.94;;;7.99;90.59
52591;BME280;38483;42.620;25.394;2022-12-08T09:41:43;97060.00;;;8.00;91.16
52591;BME280;38483;42.620;25.394;2022-12-08T09:47:14;97057.44;;;8.23;90.25
52591;BME280;38483;42.620;25.394;2022-12-08T09:49:47;97063.97;;;8.34;89.79
52591;BME280;38483;42.620;25.394;2022-12-08T09:52:24;97062.19;;;8.36;89.27
52591;BME280;38483;42.620;25.394;2022-12-08T09:54:55;97050.41;;;8.29;88.89
52591;BME280;38483;42.620;25.394;2022-12-08T09:57:24;97045.56;;;8.19;89.53
52591;BME280;38483;42.620;25.394;2022-12-08T09:59:56;97062.28;;;8.33;89.24
52591;BME280;38483;42.620;25.394;2022-12-08T10:02:27;97065.00;;;8.30;89.71
52591;BME280;38483;42.620;25.394;2022-12-08T10:04:56;97052.88;;;8.32;89.18
52591;BME280;38483;42.620;25.394;2022-12-08T10:07:36;97058.31;;;8.22;89.66
52591;BME280;38483;42.620;25.394;2022-12-08T10:13:04;97051.50;;;8.21;90.98
52591;BME280;38483;42.620;25.394;2022-12-08T10:15:41;97054.88;;;8.23;90.56
52591;BME280;38483;42.620;25.394;2022-12-08T10:18:17;97046.44;;;8.18;90.56
52591;BME280;38483;42.620;25.394;2022-12-08T10:20:47;97042.13;;;8.19;90.46
52591;BME280;38483;42.620;25.394;2022-12-08T10:23:48;97041.66;;;8.33;90.37
52591;BME280;38483;42.620;25.394;2022-12-08T10:26:18;97007.53;;;8.26;90.19
52591;BME280;38483;42.620;25.394;2022-12-08T10:28:45;97022.63;;;8.35;89.10
52591;BME280;38483;42.620;25.394;2022-12-08T10:31:19;97030.91;;;8.45;89.57
52591;BME280;38483;42.620;25.394;2022-12-08T10:33:52;97025.38;;;8.54;89.15
52591;BME280;38483;42.620;25.394;2022-12-08T10:36:20;96977.94;;;8.35;88.76
52591;BME280;38483;42.620;25.394;2022-12-08T10:38:47;97000.28;;;8.57;88.22
52591;BME280;38483;42.620;25.394;2022-12-08T10:41:14;97022.50;;;8.83;88.43
52591;BME280;38483;42.620;25.394;2022-12-08T10:43:49;97002.34;;;8.71;87.64
52591;BME280;38483;42.620;25.394;2022-12-08T10:46:23;97007.69;;;8.88;87.47
52591;BME280;38483;42.620;25.394;2022-12-08T10:49:23;97005.75;;;8.93;87.06
52591;BME280;38483;42.620;25.394;2022-12-08T10:51:42;96982.16;;;8.80;86.94
52591;BME280;38483;42.620;25.394;2022-12-08T10:54:32;97017.34;;;8.83;87.49
52591;BME280;38483;42.620;25.394;2022-12-08T10:56:59;97015.53;;;8.85;87.10
52591;BME280;38483;42.620;25.394;2022-12-08T10:59:32;97018.91;;;8.87;87.55
52591;BME280;38483;42.620;25.394;2022-12-08T11:01:59;97000.63;;;8.70;87.42
52591;BME280;38483;42.620;25.394;2022-12-08T11:04:34;97014.69;;;8.84;86.90
52591;BME280;38483;42.620;25.394;2022-12-08T11:07:04;97008.66;;;8.85;87.59
52591;BME280;38483;42.620;25.394;2022-12-08T11:09:41;97008.09;;;8.77;88.01
52591;BME280;38483;42.620;25.394;2022-12-08T11:12:18;97006.00;;;8.87;87.60
52591;BME280;38483;42.620;25.394;2022-12-08T11:14:50;97009.94;;;8.74;87.63
52591;BME280;38483;42.620;25.394;2022-12-08T11:19:59;97008.03;;;8.79;88.03
52591;BME280;38483;42.620;25.394;2022-12-08T11:22:37;97006.16;;;8.82;87.82
52591;BME280;38483;42.620;25.394;2022-12-08T11:27:36;96991.22;;;8.90;87.71
52591;BME280;38483;42.620;25.394;2022-12-08T11:30:24;96970.03;;;8.82;87.12
52591;BME280;38483;42.620;25.394;2022-12-08T11:33:21;96986.22;;;9.08;87.20
52591;BME280;38483;42.620;25.394;2022-12-08T11:36:06;96970.13;;;9.01;86.86
52591;BME280;38483;42.620;25.394;2022-12-08T11:38:40;96977.50;;;9.10;86.46
52591;BME280;38483;42.620;25.394;2022-12-08T11:41:08;96979.13;;;9.13;86.73
52591;BME280;38483;42.620;25.394;2022-12-08T11:43:57;96971.25;;;9.16;86.31
52591;BME280;38483;42.620;25.394;2022-12-08T11:46:35;96971.16;;;9.17;86.48
52591;BME280;38483;42.620;25.394;2022-12-08T11:49:11;96932.03;;;9.06;86.02
52591;BME280;38483;42.620;25.394;2022-12-08T11:51:41;96947.44;;;9.29;86.12
52591;BME280;38483;42.620;25.394;2022-12-08T11:56:41;96945.47;;;9.14;86.11
52591;BME280;38483;42.620;25.394;2022-12-08T11:59:25;96941.59;;;9.24;86.21
52591;BME280;38483;42.620;25.394;2022-12-08T12:01:56;96958.59;;;9.30;86.85
52591;BME280;38483;42.620;25.394;2022-12-08T12:17:44;96951.94;;;9.24;86.15
52591;BME280;38483;42.620;25.394;2022-12-08T12:26:06;96954.72;;;9.20;86.58
52591;BME280;38483;42.620;25.394;2022-12-08T12:28:46;96957.88;;;9.06;86.76
52591;BME280;38483;42.620;25.394;2022-12-08T12:31:18;96964.00;;;9.03;86.60
52591;BME280;38483;42.620;25.394;2022-12-08T12:33:48;96958.91;;;9.02;86.98
52591;BME280;38483;42.620;25.394;2022-12-08T12:36:16;96967.78;;;8.95;87.23
52591;BME280;38483;42.620;25.394;2022-12-08T12:38:51;96969.00;;;8.86;88.15
52591;BME280;38483;42.620;25.394;2022-12-08T12:41:49;96961.75;;;8.96;87.78
52591;BME280;38483;42.620;25.394;2022-12-08T12:54:44;96962.44;;;8.78;87.62
52591;BME280;38483;42.620;25.394;2022-12-08T12:57:38;96970.50;;;8.70;88.44
52591;BME280;38483;42.620;25.394;2022-12-08T13:00:21;96966.19;;;8.71;89.24
52591;BME280;38483;42.620;25.394;2022-12-08T13:02:49;96959.75;;;8.81;89.61
52591;BME280;38483;42.620;25.394;2022-12-08T13:05:27;96969.22;;;8.82;89.01
52591;BME280;38483;42.620;25.394;2022-12-08T13:10:32;96966.72;;;8.79;88.54
52591;BME280;38483;42.620;25.394;2022-12-08T13:15:34;96966.41;;;8.86;88.24
52591;BME280;38483;42.620;25.394;2022-12-08T13:18:03;96903.19;;;8.55;87.93
52591;BME280;38483;42.620;25.394;2022-12-08T13:20:40;96962.94;;;8.87;88.27
52591;BME280;38483;42.620;25.394;2022-12-08T13:23:26;96962.09;;;8.87;88.66
52591;BME280;38483;42.620;25.394;2022-12-08T13:26:13;96963.53;;;8.94;87.83
52591;BME280;38483;42.620;25.394;2022-12-08T13:39:23;96972.19;;;8.93;88.49
52591;BME280;38483;42.620;25.394;2022-12-08T13:41:57;96965.09;;;8.98;87.88
52591;BME280;38483;42.620;25.394;2022-12-08T13:45:12;96961.41;;;9.03;87.53
52591;BME280;38483;42.620;25.394;2022-12-08T13:48:10;96977.31;;;9.15;87.41
52591;BME280;38483;42.620;25.394;2022-12-08T13:51:20;96972.19;;;9.13;87.20
52591;BME280;38483;42.620;25.394;2022-12-08T13:54:33;96963.03;;;9.06;87.21
52591;BME280;38483;42.620;25.394;2022-12-08T13:57:30;96972.44;;;9.07;86.81
52591;BME280;38483;42.620;25.394;2022-12-08T14:00:00;96975.19;;;9.04;87.38
52591;BME280;38483;42.620;25.394;2022-12-08T14:02:42;96968.88;;;8.89;88.16
52591;BME280;38483;42.620;25.394;2022-12-08T14:05:19;96970.44;;;8.93;88.02
52591;BME280;38483;42.620;25.394;2022-12-08T14:08:17;96963.47;;;8.74;88.63
52591;BME280;38483;42.620;25.394;2022-12-08T14:11:06;96956.13;;;8.65;88.41
52591;BME280;38483;42.620;25.394;2022-12-08T14:13:33;96971.03;;;8.78;88.49
52591;BME280;38483;42.620;25.394;2022-12-08T14:16:00;96929.09;;;8.52;88.42
52591;BME280;38483;42.620;25.394;2022-12-08T14:18:30;96973.94;;;8.71;89.39
52591;BME280;38483;42.620;25.394;2022-12-08T14:20:59;96931.50;;;8.35;89.98
52591;BME280;38483;42.620;25.394;2022-12-08T14:23:46;96948.00;;;8.52;89.58
52591;BME280;38483;42.620;25.394;2022-12-08T14:26:13;96945.50;;;8.51;89.77
52591;BME280;38483;42.620;25.394;2022-12-08T14:28:40;96958.00;;;8.61;89.47
52591;BME280;38483;42.620;25.394;2022-12-08T14:31:11;96952.31;;;8.52;89.43
52591;BME280;38483;42.620;25.394;2022-12-08T14:33:40;96966.78;;;8.56;89.58
52591;BME280;38483;42.620;25.394;2022-12-08T14:36:08;96979.63;;;8.57;89.95
52591;BME280;38483;42.620;25.394;2022-12-08T14:38:36;96972.72;;;8.58;89.97
52591;BME280;38483;42.620;25.394;2022-12-08T14:41:06;96979.69;;;8.56;90.29
52591;BME280;38483;42.620;25.394;2022-12-08T14:43:33;96964.03;;;8.39;90.72
52591;BME280;38483;42.620;25.394;2022-12-08T14:46:04;96984.91;;;8.54;90.33
52591;BME280;38483;42.620;25.394;2022-12-08T14:48:44;96987.50;;;8.54;90.74
52591;BME280;38483;42.620;25.394;2022-12-08T14:53:54;96987.34;;;8.59;90.21
52591;BME280;38483;42.620;25.394;2022-12-08T15:01:29;96988.03;;;8.62;89.47
52591;BME280;38483;42.620;25.394;2022-12-08T15:04:02;96992.66;;;8.54;89.92
52591;BME280;38483;42.620;25.394;2022-12-08T15:06:32;96983.47;;;8.47;89.79